sensor_id;sensor_type;location;lat;lon;timestamp;temperature;humidity
15455;DHT22;21057;51.024;7.540;2023-02-28T00:00:01;0.70;99.90
15455;DHT22;21057;51.024;7.540;2023-02-28T00:02:33;0.70;99.90
15455;DHT22;21057;51.024;7.540;2023-02-28T00:05:01;0.70;99.90
15455;DHT22;21057;51.024;7.540;2023-02-28T00:07:29;0.70;99.90
15455;DHT22;21057;51.024;7.540;2023-02-28T00:09:57;0.80;99.90
15455;DHT22;21057;51.024;7.540;2023-02-28T00:12:24;0.80;99.90
15455;DHT22;21057;51.024;7.540;2023-02-28T00:14:51;0.70;99.90
15455;DHT22;21057;51.024;7.540;2023-02-28T00:17:18;0.70;99.90
15455;DHT22;21057;51.024;7.540;2023-02-28T00:19:47;0.70;99.90
15455;DHT22;21057;51.024;7.540;2023-02-28T00:22:15;0.90;99.90
15455;DHT22;21057;51.024;7.540;2023-02-28T00:24:42;0.90;99.90
15455;DHT22;21057;51.024;7.540;2023-02-28T00:27:12;0.90;99.90
15455;DHT22;21057;51.024;7.540;2023-02-28T00:29:39;0.90;99.90
15455;DHT22;21057;51.024;7.540;2023-02-28T00:32:07;1.00;99.90
15455;DHT22;21057;51.024;7.540;2023-02-28T00:34:34;0.90;99.90
15455;DHT22;21057;51.024;7.540;2023-02-28T00:37:04;0.80;99.90
15455;DHT22;21057;51.024;7.540;2023-02-28T00:39:34;0.90;99.90
15455;DHT22;21057;51.024;7.540;2023-02-28T00:42:02;0.90;99.90
15455;DHT22;21057;51.024;7.540;2023-02-28T00:44:30;0.90;99.90
15455;DHT22;21057;51.024;7.540;2023-02-28T00:46:58;0.80;99.90
15455;DHT22;21057;51.024;7.540;2023-02-28T00:49:27;0.80;99.90
15455;DHT22;21057;51.024;7.540;2023-02-28T00:51:54;0.70;99.90
15455;DHT22;21057;51.024;7.540;2023-02-28T00:54:22;0.80;99.90
15455;DHT22;21057;51.024;7.540;2023-02-28T00:56:49;0.70;99.90
15455;DHT22;21057;51.024;7.540;2023-02-28T00:59:17;0.60;99.90
15455;DHT22;21057;51.024;7.540;2023-02-28T01:01:46;0.70;99.90
15455;DHT22;21057;51.024;7.540;2023-02-28T01:04:14;0.90;99.90
15455;DHT22;21057;51.024;7.540;2023-02-28T01:06:41;0.80;99.90
15455;DHT22;21057;51.024;7.540;2023-02-28T01:09:08;1.10;99.90
15455;DHT22;21057;51.024;7.540;2023-02-28T01:11:35;1.20;99.90
15455;DHT22;21057;51.024;7.540;2023-02-28T01:14:03;1.00;99.90
15455;DHT22;21057;51.024;7.540;2023-02-28T01:16:30;0.90;99.90
15455;DHT22;21057;51.024;7.540;2023-02-28T01:18:58;0.90;99.90
15455;DHT22;21057;51.024;7.540;2023-02-28T01:21:25;0.70;99.90
15455;DHT22;21057;51.024;7.540;2023-02-28T01:23:52;0.70;99.90
15455;DHT22;21057;51.024;7.540;2023-02-28T01:26:20;0.80;99.90
15455;DHT22;21057;51.024;7.540;2023-02-28T01:28:47;1.00;99.90
15455;DHT22;21057;51.024;7.540;2023-02-28T01:31:15;1.00;99.90
15455;DHT22;21057;51.024;7.540;2023-02-28T01:33:42;0.90;99.90
15455;DHT22;21057;51.024;7.540;2023-02-28T01:36:12;0.90;99.90
15455;DHT22;21057;51.024;7.540;2023-02-28T01:38:39;0.90;99.90
15455;DHT22;21057;51.024;7.540;2023-02-28T01:41:07;0.90;99.90
15455;DHT22;21057;51.024;7.540;2023-02-28T01:43:57;0.90;99.90
15455;DHT22;21057;51.024;7.540;2023-02-28T01:46:24;0.90;99.90
15455;DHT22;21057;51.024;7.540;2023-02-28T01:48:54;1.00;99.90
15455;DHT22;21057;51.024;7.540;2023-02-28T01:51:29;0.80;99.90
15455;DHT22;21057;51.024;7.540;2023-02-28T01:54:01;0.60;99.90
15455;DHT22;21057;51.024;7.540;2023-02-28T01:56:32;0.50;99.90
15455;DHT22;21057;51.024;7.540;2023-02-28T01:59:01;0.60;99.90
15455;DHT22;21057;51.024;7.540;2023-02-28T02:01:33;0.70;99.90
15455;DHT22;21057;51.024;7.540;2023-02-28T02:04:02;0.80;99.90
15455;DHT22;21057;51.024;7.540;2023-02-28T02:06:35;0.70;99.90
15455;DHT22;21057;51.024;7.540;2023-02-28T02:09:03;0.70;99.90
15455;DHT22;21057;51.024;7.540;2023-02-28T02:11:31;0.80;99.90
15455;DHT22;21057;51.024;7.540;2023-02-28T02:17:04;0.80;99.90
15455;DHT22;21057;51.024;7.540;2023-02-28T02:19:51;0.80;99.90
15455;DHT22;21057;51.024;7.540;2023-02-28T02:22:51;0.80;99.90
15455;DHT22;21057;51.024;7.540;2023-02-28T02:25:28;0.60;99.90
15455;DHT22;21057;51.024;7.540;2023-02-28T02:28:11;0.60;99.90
15455;DHT22;21057;51.024;7.540;2023-02-28T02:31:01;0.50;99.90
15455;DHT22;21057;51.024;7.540;2023-02-28T02:36:46;0.50;99.90
15455;DHT22;21057;51.024;7.540;2023-02-28T02:39:22;0.50;99.90
15455;DHT22;21057;51.024;7.540;2023-02-28T02:41:52;0.50;99.90
15455;DHT22;21057;51.024;7.540;2023-02-28T02:44:21;0.40;99.90
15455;DHT22;21057;51.024;7.540;2023-02-28T02:46:51;0.40;99.90
15455;DHT22;21057;51.024;7.540;2023-02-28T02:49:25;0.40;99.90
15455;DHT22;21057;51.024;7.540;2023-02-28T02:51:55;0.40;99.90
15455;DHT22;21057;51.024;7.540;2023-02-28T02:54:27;0.40;99.90
15455;DHT22;21057;51.024;7.540;2023-02-28T02:56:58;0.30;99.90
15455;DHT22;21057;51.024;7.540;2023-02-28T02:59:27;0.40;99.90
15455;DHT22;21057;51.024;7.540;2023-02-28T03:01:59;0.30;99.90
15455;DHT22;21057;51.024;7.540;2023-02-28T03:04:30;0.40;99.90
15455;DHT22;21057;51.024;7.540;2023-02-28T03:07:08;0.40;99.90
15455;DHT22;21057;51.024;7.540;2023-02-28T03:09:49;0.30;99.90
15455;DHT22;21057;51.024;7.540;2023-02-28T03:12:27;0.30;99.90
15455;DHT22;21057;51.024;7.540;2023-02-28T03:15:14;0.20;99.90
15455;DHT22;21057;51.024;7.540;2023-02-28T03:17:55;0.30;99.90
15455;DHT22;21057;51.024;7.540;2023-02-28T03:20:35;0.40;99.90
15455;DHT22;21057;51.024;7.540;2023-02-28T03:23:13;0.30;99.90
15455;DHT22;21057;51.024;7.540;2023-02-28T03:25:52;0.10;99.90
15455;DHT22;21057;51.024;7.540;2023-02-28T03:28:28;0.10;99.90
15455;DHT22;21057;51.024;7.540;2023-02-28T03:30:59;0.10;99.90
15455;DHT22;21057;51.024;7.540;2023-02-28T03:33:31;0.00;99.90
15455;DHT22;21057;51.024;7.540;2023-02-28T03:36:00;0.10;99.90
15455;DHT22;21057;51.024;7.540;2023-02-28T03:38:34;0.00;99.90
15455;DHT22;21057;51.024;7.540;2023-02-28T03:41:05;0.10;99.90
15455;DHT22;21057;51.024;7.540;2023-02-28T03:43:35;0.10;99.90
15455;DHT22;21057;51.024;7.540;2023-02-28T03:46:07;0.10;99.90
15455;DHT22;21057;51.024;7.540;2023-02-28T03:48:44;0.10;99.90
15455;DHT22;21057;51.024;7.540;2023-02-28T03:51:16;0.10;99.90
15455;DHT22;21057;51.024;7.540;2023-02-28T03:53:49;0.20;99.90
15455;DHT22;21057;51.024;7.540;2023-02-28T03:56:22;0.20;99.90
15455;DHT22;21057;51.024;7.540;2023-02-28T03:58:54;0.20;99.90
15455;DHT22;21057;51.024;7.540;2023-02-28T04:01:25;0.30;99.90
15455;DHT22;21057;51.024;7.540;2023-02-28T04:03:53;0.20;99.90
15455;DHT22;21057;51.024;7.540;2023-02-28T04:06:22;0.20;99.90
15455;DHT22;21057;51.024;7.540;2023-02-28T04:08:50;0.10;99.90
15455;DHT22;21057;51.024;7.540;2023-02-28T04:11:23;0.10;99.90
15455;DHT22;21057;51.024;7.540;2023-02-28T04:13:53;0.20;99.90
15455;DHT22;21057;51.024;7.540;2023-02-28T04:16:20;0.10;99.90
15455;DHT22;21057;51.024;7.540;2023-02-28T04:18:47;0.10;99.90
15455;DHT22;21057;51.024;7.540;2023-02-28T04:21:23;-0.10;99.90
15455;DHT22;21057;51.024;7.540;2023-02-28T04:23:52;0.10;99.90
15455;DHT22;21057;51.024;7.540;2023-02-28T04:26:18;0.20;99.90
15455;DHT22;21057;51.024;7.540;2023-02-28T04:28:47;0.20;99.90
15455;DHT22;21057;51.024;7.540;2023-02-28T04:31:14;0.20;99.90
15455;DHT22;21057;51.024;7.540;2023-02-28T04:33:41;0.00;99.90
15455;DHT22;21057;51.024;7.540;2023-02-28T04:36:08;0.00;99.90
15455;DHT22;21057;51.024;7.540;2023-02-28T04:38:37;0.00;99.90
15455;DHT22;21057;51.024;7.540;2023-02-28T04:41:06;0.00;99.90
15455;DHT22;21057;51.024;7.540;2023-02-28T04:43:33;-0.10;99.90
15455;DHT22;21057;51.024;7.540;2023-02-28T04:46:02;0.00;99.90
15455;DHT22;21057;51.024;7.540;2023-02-28T04:48:30;0.00;99.90
15455;DHT22;21057;51.024;7.540;2023-02-28T04:51:00;0.30;99.90
15455;DHT22;21057;51.024;7.540;2023-02-28T04:53:27;0.30;99.90
15455;DHT22;21057;51.024;7.540;2023-02-28T04:56:10;0.20;99.90
15455;DHT22;21057;51.024;7.540;2023-02-28T04:58:37;0.10;99.90
15455;DHT22;21057;51.024;7.540;2023-02-28T05:01:07;0.20;99.90
15455;DHT22;21057;51.024;7.540;2023-02-28T05:03:41;0.30;99.90
15455;DHT22;21057;51.024;7.540;2023-02-28T05:06:08;0.20;99.90
15455;DHT22;21057;51.024;7.540;2023-02-28T05:08:36;0.10;99.90
15455;DHT22;21057;51.024;7.540;2023-02-28T05:11:05;0.10;99.90
15455;DHT22;21057;51.024;7.540;2023-02-28T05:13:34;0.00;99.90
15455;DHT22;21057;51.024;7.540;2023-02-28T05:16:01;0.20;99.90
15455;DHT22;21057;51.024;7.540;2023-02-28T05:18:29;0.10;99.90
15455;DHT22;21057;51.024;7.540;2023-02-28T05:20:55;0.20;99.90
15455;DHT22;21057;51.024;7.540;2023-02-28T05:23:22;0.30;99.90
15455;DHT22;21057;51.024;7.540;2023-02-28T05:25:54;0.20;99.90
15455;DHT22;21057;51.024;7.540;2023-02-28T05:28:21;0.30;99.90
15455;DHT22;21057;51.024;7.540;2023-02-28T05:30:49;0.20;99.90
15455;DHT22;21057;51.024;7.540;2023-02-28T05:33:16;0.20;99.90
15455;DHT22;21057;51.024;7.540;2023-02-28T05:35:42;0.20;99.90
15455;DHT22;21057;51.024;7.540;2023-02-28T05:38:09;0.30;99.90
15455;DHT22;21057;51.024;7.540;2023-02-28T05:40:38;0.20;99.90
15455;DHT22;21057;51.024;7.540;2023-02-28T05:43:05;0.00;99.90
15455;DHT22;21057;51.024;7.540;2023-02-28T05:45:33;0.00;99.90
15455;DHT22;21057;51.024;7.540;2023-02-28T05:48:01;0.00;99.90
15455;DHT22;21057;51.024;7.540;2023-02-28T05:50:27;0.00;99.90
15455;DHT22;21057;51.024;7.540;2023-02-28T05:53:04;0.00;99.90
15455;DHT22;21057;51.024;7.540;2023-02-28T05:55:31;0.10;99.90
15455;DHT22;21057;51.024;7.540;2023-02-28T05:57:58;0.00;99.90
15455;DHT22;21057;51.024;7.540;2023-02-28T06:00:25;-0.10;99.90
15455;DHT22;21057;51.024;7.540;2023-02-28T06:02:52;0.00;99.90
15455;DHT22;21057;51.024;7.540;2023-02-28T06:05:23;0.00;99.90
15455;DHT22;21057;51.024;7.540;2023-02-28T06:07:50;0.10;99.90
15455;DHT22;21057;51.024;7.540;2023-02-28T06:10:16;0.00;99.90
15455;DHT22;21057;51.024;7.540;2023-02-28T06:12:51;0.10;99.90
15455;DHT22;21057;51.024;7.540;2023-02-28T06:15:18;0.10;99.90
15455;DHT22;21057;51.024;7.540;2023-02-28T06:17:46;0.00;99.90
15455;DHT22;21057;51.024;7.540;2023-02-28T06:20:25;0.00;99.90
15455;DHT22;21057;51.024;7.540;2023-02-28T06:22:56;0.00;99.90
15455;DHT22;21057;51.024;7.540;2023-02-28T06:25:24;-0.20;99.90
15455;DHT22;21057;51.024;7.540;2023-02-28T06:27:51;0.00;99.90
15455;DHT22;21057;51.024;7.540;2023-02-28T06:30:18;0.00;99.90
15455;DHT22;21057;51.024;7.540;2023-02-28T06:32:49;0.00;99.90
15455;DHT22;21057;51.024;7.540;2023-02-28T06:35:24;0.10;99.90
15455;DHT22;21057;51.024;7.540;2023-02-28T06:37:52;0.20;99.90
15455;DHT22;21057;51.024;7.540;2023-02-28T06:40:19;0.00;99.90
15455;DHT22;21057;51.024;7.540;2023-02-28T06:42:53;0.00;99.90
15455;DHT22;21057;51.024;7.540;2023-02-28T06:45:27;0.10;99.90
15455;DHT22;21057;51.024;7.540;2023-02-28T06:48:00;0.00;99.90
15455;DHT22;21057;51.024;7.540;2023-02-28T06:50:28;0.00;99.90
15455;DHT22;21057;51.024;7.540;2023-02-28T06:52:56;0.10;99.90
15455;DHT22;21057;51.024;7.540;2023-02-28T06:55:23;0.20;99.90
15455;DHT22;21057;51.024;7.540;2023-02-28T06:57:49;0.20;99.90
15455;DHT22;21057;51.024;7.540;2023-02-28T07:00:17;0.20;99.90
15455;DHT22;21057;51.024;7.540;2023-02-28T07:02:45;0.20;99.90
15455;DHT22;21057;51.024;7.540;2023-02-28T07:05:14;0.20;99.90
15455;DHT22;21057;51.024;7.540;2023-02-28T07:07:42;0.10;99.90
15455;DHT22;21057;51.024;7.540;2023-02-28T07:10:12;0.30;99.90
15455;DHT22;21057;51.024;7.540;2023-02-28T07:12:42;0.40;99.90
15455;DHT22;21057;51.024;7.540;2023-02-28T07:15:09;0.40;99.90
15455;DHT22;21057;51.024;7.540;2023-02-28T07:17:39;0.30;99.90
15455;DHT22;21057;51.024;7.540;2023-02-28T07:20:07;0.40;99.90
15455;DHT22;21057;51.024;7.540;2023-02-28T07:22:34;0.50;99.90
15455;DHT22;21057;51.024;7.540;2023-02-28T07:25:02;0.60;99.90
15455;DHT22;21057;51.024;7.540;2023-02-28T07:27:29;0.60;99.90
15455;DHT22;21057;51.024;7.540;2023-02-28T07:29:56;0.60;99.90
15455;DHT22;21057;51.024;7.540;2023-02-28T07:32:27;0.60;99.90
15455;DHT22;21057;51.024;7.540;2023-02-28T07:34:54;0.70;99.90
15455;DHT22;21057;51.024;7.540;2023-02-28T07:37:21;0.90;99.90
15455;DHT22;21057;51.024;7.540;2023-02-28T07:39:48;0.80;99.90
15455;DHT22;21057;51.024;7.540;2023-02-28T07:42:24;0.80;99.90
15455;DHT22;21057;51.024;7.540;2023-02-28T07:44:51;0.80;99.90
15455;DHT22;21057;51.024;7.540;2023-02-28T07:47:19;0.70;99.90
15455;DHT22;21057;51.024;7.540;2023-02-28T07:49:46;0.70;99.90
15455;DHT22;21057;51.024;7.540;2023-02-28T07:52:13;0.60;99.90
15455;DHT22;21057;51.024;7.540;2023-02-28T07:54:39;0.60;99.90
15455;DHT22;21057;51.024;7.540;2023-02-28T07:57:06;0.70;99.90
15455;DHT22;21057;51.024;7.540;2023-02-28T07:59:34;0.80;99.90
15455;DHT22;21057;51.024;7.540;2023-02-28T08:02:13;0.90;99.90
15455;DHT22;21057;51.024;7.540;2023-02-28T08:04:53;1.10;99.90
15455;DHT22;21057;51.024;7.540;2023-02-28T08:07:26;1.20;99.90
15455;DHT22;21057;51.024;7.540;2023-02-28T08:09:54;1.30;99.90
15455;DHT22;21057;51.024;7.540;2023-02-28T08:12:21;1.10;99.90
15455;DHT22;21057;51.024;7.540;2023-02-28T08:14:56;1.10;99.90
15455;DHT22;21057;51.024;7.540;2023-02-28T08:17:30;1.10;99.90
15455;DHT22;21057;51.024;7.540;2023-02-28T08:19:56;1.10;99.90
15455;DHT22;21057;51.024;7.540;2023-02-28T08:22:25;1.20;99.90
15455;DHT22;21057;51.024;7.540;2023-02-28T08:24:56;1.20;99.90
15455;DHT22;21057;51.024;7.540;2023-02-28T08:27:23;1.20;99.90
15455;DHT22;21057;51.024;7.540;2023-02-28T08:29:50;1.30;99.90
15455;DHT22;21057;51.024;7.540;2023-02-28T08:32:18;1.20;99.90
15455;DHT22;21057;51.024;7.540;2023-02-28T08:34:46;1.10;99.90
15455;DHT22;21057;51.024;7.540;2023-02-28T08:37:13;1.20;99.90
15455;DHT22;21057;51.024;7.540;2023-02-28T08:39:40;1.30;99.90
15455;DHT22;21057;51.024;7.540;2023-02-28T08:42:06;1.20;99.90
15455;DHT22;21057;51.024;7.540;2023-02-28T08:44:33;1.20;99.90
15455;DHT22;21057;51.024;7.540;2023-02-28T08:47:00;1.40;99.90
15455;DHT22;21057;51.024;7.540;2023-02-28T08:49:29;1.40;99.90
15455;DHT22;21057;51.024;7.540;2023-02-28T08:51:55;1.30;99.90
15455;DHT22;21057;51.024;7.540;2023-02-28T08:54:25;1.40;99.90
15455;DHT22;21057;51.024;7.540;2023-02-28T08:56:52;1.40;99.90
15455;DHT22;21057;51.024;7.540;2023-02-28T08:59:24;1.40;99.90
15455;DHT22;21057;51.024;7.540;2023-02-28T09:01:51;1.40;99.90
15455;DHT22;21057;51.024;7.540;2023-02-28T09:04:19;1.50;99.90
15455;DHT22;21057;51.024;7.540;2023-02-28T09:06:48;1.50;99.90
15455;DHT22;21057;51.024;7.540;2023-02-28T09:09:22;1.50;99.90
15455;DHT22;21057;51.024;7.540;2023-02-28T09:11:49;1.60;99.90
15455;DHT22;21057;51.024;7.540;2023-02-28T09:14:19;1.70;99.90
15455;DHT22;21057;51.024;7.540;2023-02-28T09:16:52;1.90;99.90
15455;DHT22;21057;51.024;7.540;2023-02-28T09:19:20;2.00;99.00
15455;DHT22;21057;51.024;7.540;2023-02-28T09:21:50;2.10;99.50
15455;DHT22;21057;51.024;7.540;2023-02-28T09:24:17;2.20;99.40
15455;DHT22;21057;51.024;7.540;2023-02-28T09:26:58;2.20;99.70
15455;DHT22;21057;51.024;7.540;2023-02-28T09:29:35;2.20;99.20
15455;DHT22;21057;51.024;7.540;2023-02-28T09:32:02;2.10;99.30
15455;DHT22;21057;51.024;7.540;2023-02-28T09:34:31;2.30;99.50
15455;DHT22;21057;51.024;7.540;2023-02-28T09:36:59;2.40;98.90
15455;DHT22;21057;51.024;7.540;2023-02-28T09:39:34;2.40;98.60
15455;DHT22;21057;51.024;7.540;2023-02-28T09:42:02;2.60;98.90
15455;DHT22;21057;51.024;7.540;2023-02-28T09:44:40;2.80;99.70
15455;DHT22;21057;51.024;7.540;2023-02-28T09:47:27;3.10;98.10
15455;DHT22;21057;51.024;7.540;2023-02-28T09:50:11;3.10;98.30
15455;DHT22;21057;51.024;7.540;2023-02-28T09:52:45;3.40;98.50
15455;DHT22;21057;51.024;7.540;2023-02-28T09:55:28;3.50;97.80
15455;DHT22;21057;51.024;7.540;2023-02-28T09:58:10;3.90;97.60
15455;DHT22;21057;51.024;7.540;2023-02-28T10:00:54;4.10;96.60
15455;DHT22;21057;51.024;7.540;2023-02-28T10:03:29;4.30;95.50
15455;DHT22;21057;51.024;7.540;2023-02-28T10:06:02;4.40;95.20
15455;DHT22;21057;51.024;7.540;2023-02-28T10:08:36;5.40;93.00
15455;DHT22;21057;51.024;7.540;2023-02-28T10:11:25;5.90;89.00
15455;DHT22;21057;51.024;7.540;2023-02-28T10:14:02;6.20;87.20
15455;DHT22;21057;51.024;7.540;2023-02-28T10:16:35;6.50;83.50
15455;DHT22;21057;51.024;7.540;2023-02-28T10:19:06;7.40;79.20
15455;DHT22;21057;51.024;7.540;2023-02-28T10:21:39;7.70;74.50
15455;DHT22;21057;51.024;7.540;2023-02-28T10:24:19;6.90;71.10
15455;DHT22;21057;51.024;7.540;2023-02-28T10:26:47;6.10;77.50
15455;DHT22;21057;51.024;7.540;2023-02-28T10:29:15;5.50;79.00
15455;DHT22;21057;51.024;7.540;2023-02-28T10:31:42;5.10;81.90
15455;DHT22;21057;51.024;7.540;2023-02-28T10:34:11;5.20;84.60
15455;DHT22;21057;51.024;7.540;2023-02-28T10:36:39;5.20;81.60
15455;DHT22;21057;51.024;7.540;2023-02-28T10:39:40;5.90;84.90
15455;DHT22;21057;51.024;7.540;2023-02-28T10:42:20;6.10;80.40
15455;DHT22;21057;51.024;7.540;2023-02-28T10:44:47;5.90;78.60
15455;DHT22;21057;51.024;7.540;2023-02-28T10:47:15;5.70;80.00
15455;DHT22;21057;51.024;7.540;2023-02-28T10:49:47;5.50;82.10
15455;DHT22;21057;51.024;7.540;2023-02-28T10:52:33;5.50;80.90
15455;DHT22;21057;51.024;7.540;2023-02-28T10:55:20;5.40;79.50
15455;DHT22;21057;51.024;7.540;2023-02-28T10:57:49;5.30;83.10
15455;DHT22;21057;51.024;7.540;2023-02-28T11:00:18;5.20;82.70
15455;DHT22;21057;51.024;7.540;2023-02-28T11:02:47;5.20;86.20
15455;DHT22;21057;51.024;7.540;2023-02-28T11:05:25;6.10;84.10
15455;DHT22;21057;51.024;7.540;2023-02-28T11:07:53;7.40;77.80
15455;DHT22;21057;51.024;7.540;2023-02-28T11:10:25;7.60;72.40
15455;DHT22;21057;51.024;7.540;2023-02-28T11:12:55;7.60;74.70
15455;DHT22;21057;51.024;7.540;2023-02-28T11:15:24;7.60;74.10
15455;DHT22;21057;51.024;7.540;2023-02-28T11:18:20;6.90;72.70
15455;DHT22;21057;51.024;7.540;2023-02-28T11:20:51;6.10;75.80
15455;DHT22;21057;51.024;7.540;2023-02-28T11:23:37;5.90;79.90
15455;DHT22;21057;51.024;7.540;2023-02-28T11:26:08;5.60;81.20
15455;DHT22;21057;51.024;7.540;2023-02-28T11:28:39;6.00;83.10
15455;DHT22;21057;51.024;7.540;2023-02-28T11:31:16;6.90;77.60
15455;DHT22;21057;51.024;7.540;2023-02-28T11:33:46;7.80;76.50
15455;DHT22;21057;51.024;7.540;2023-02-28T11:36:19;8.10;73.00
15455;DHT22;21057;51.024;7.540;2023-02-28T11:38:48;7.40;69.80
15455;DHT22;21057;51.024;7.540;2023-02-28T11:41:38;6.30;73.20
15455;DHT22;21057;51.024;7.540;2023-02-28T11:44:21;6.10;79.30
15455;DHT22;21057;51.024;7.540;2023-02-28T11:46:52;5.70;79.60
15455;DHT22;21057;51.024;7.540;2023-02-28T11:49:32;5.30;81.90
15455;DHT22;21057;51.024;7.540;2023-02-28T11:52:09;5.20;84.70
15455;DHT22;21057;51.024;7.540;2023-02-28T11:55:06;5.20;82.90
15455;DHT22;21057;51.024;7.540;2023-02-28T11:58:09;4.90;80.40
15455;DHT22;21057;51.024;7.540;2023-02-28T12:01:11;4.90;82.80
15455;DHT22;21057;51.024;7.540;2023-02-28T12:06:49;4.70;84.20
15455;DHT22;21057;51.024;7.540;2023-02-28T12:09:46;4.60;82.70
15455;DHT22;21057;51.024;7.540;2023-02-28T12:12:41;4.60;81.00
15455;DHT22;21057;51.024;7.540;2023-02-28T12:15:42;4.50;84.80
15455;DHT22;21057;51.024;7.540;2023-02-28T12:18:25;4.50;81.60
15455;DHT22;21057;51.024;7.540;2023-02-28T12:20:59;4.40;87.60
15455;DHT22;21057;51.024;7.540;2023-02-28T12:23:50;4.60;83.30
15455;DHT22;21057;51.024;7.540;2023-02-28T12:26:27;4.70;85.30
15455;DHT22;21057;51.024;7.540;2023-02-28T12:29:02;4.80;84.20
15455;DHT22;21057;51.024;7.540;2023-02-28T12:31:36;4.80;83.90
15455;DHT22;21057;51.024;7.540;2023-02-28T12:34:15;4.70;82.60
15455;DHT22;21057;51.024;7.540;2023-02-28T12:36:44;4.60;84.80
15455;DHT22;21057;51.024;7.540;2023-02-28T12:39:16;4.80;86.80
15455;DHT22;21057;51.024;7.540;2023-02-28T12:41:54;4.70;86.30
15455;DHT22;21057;51.024;7.540;2023-02-28T12:44:34;4.60;84.10
15455;DHT22;21057;51.024;7.540;2023-02-28T12:47:10;4.70;87.00
15455;DHT22;21057;51.024;7.540;2023-02-28T12:49:51;4.70;85.20
15455;DHT22;21057;51.024;7.540;2023-02-28T12:52:31;4.60;87.10
15455;DHT22;21057;51.024;7.540;2023-02-28T12:55:05;4.50;89.00
15455;DHT22;21057;51.024;7.540;2023-02-28T12:57:38;4.50;85.70
15455;DHT22;21057;51.024;7.540;2023-02-28T13:00:12;4.50;87.10
15455;DHT22;21057;51.024;7.540;2023-02-28T13:09:05;4.80;85.90
15455;DHT22;21057;51.024;7.540;2023-02-28T13:11:39;4.50;86.80
15455;DHT22;21057;51.024;7.540;2023-02-28T13:14:24;4.60;84.30
15455;DHT22;21057;51.024;7.540;2023-02-28T13:16:57;4.60;85.90
15455;DHT22;21057;51.024;7.540;2023-02-28T13:19:28;4.60;84.70
15455;DHT22;21057;51.024;7.540;2023-02-28T13:21:56;4.70;86.90
15455;DHT22;21057;51.024;7.540;2023-02-28T13:24:40;4.70;83.80
15455;DHT22;21057;51.024;7.540;2023-02-28T13:27:23;4.70;85.10
15455;DHT22;21057;51.024;7.540;2023-02-28T13:29:52;4.60;83.20
15455;DHT22;21057;51.024;7.540;2023-02-28T13:32:40;4.70;84.30
15455;DHT22;21057;51.024;7.540;2023-02-28T13:35:38;4.80;87.50
15455;DHT22;21057;51.024;7.540;2023-02-28T13:38:38;5.00;85.20
15455;DHT22;21057;51.024;7.540;2023-02-28T13:44:17;5.50;81.10
15455;DHT22;21057;51.024;7.540;2023-02-28T13:50:22;6.20;78.80
15455;DHT22;21057;51.024;7.540;2023-02-28T13:55:44;8.70;75.10
15455;DHT22;21057;51.024;7.540;2023-02-28T13:58:33;9.60;72.50
15455;DHT22;21057;51.024;7.540;2023-02-28T14:01:11;10.40;67.90
15455;DHT22;21057;51.024;7.540;2023-02-28T14:03:56;10.90;64.00
15455;DHT22;21057;51.024;7.540;2023-02-28T14:06:27;10.70;62.70
15455;DHT22;21057;51.024;7.540;2023-02-28T14:08:59;10.80;61.10
15455;DHT22;21057;51.024;7.540;2023-02-28T14:11:32;10.90;59.80
15455;DHT22;21057;51.024;7.540;2023-02-28T14:14:04;11.20;62.10
15455;DHT22;21057;51.024;7.540;2023-02-28T14:16:39;11.60;60.90
15455;DHT22;21057;51.024;7.540;2023-02-28T14:19:12;11.70;57.50
15455;DHT22;21057;51.024;7.540;2023-02-28T14:21:48;11.40;59.00
15455;DHT22;21057;51.024;7.540;2023-02-28T14:24:39;11.40;59.20
15455;DHT22;21057;51.024;7.540;2023-02-28T14:27:28;11.50;57.60
15455;DHT22;21057;51.024;7.540;2023-02-28T14:30:15;11.70;56.20
15455;DHT22;21057;51.024;7.540;2023-02-28T14:32:51;11.70;57.40
15455;DHT22;21057;51.024;7.540;2023-02-28T14:35:36;11.70;56.10
15455;DHT22;21057;51.024;7.540;2023-02-28T14:38:14;11.20;55.50
15455;DHT22;21057;51.024;7.540;2023-02-28T14:40:45;10.80;56.80
15455;DHT22;21057;51.024;7.540;2023-02-28T14:43:20;10.10;58.20
15455;DHT22;21057;51.024;7.540;2023-02-28T14:45:51;10.10;58.40
15455;DHT22;21057;51.024;7.540;2023-02-28T14:48:26;9.90;58.90
15455;DHT22;21057;51.024;7.540;2023-02-28T14:50:54;9.60;60.00
15455;DHT22;21057;51.024;7.540;2023-02-28T14:53:25;9.00;60.00
15455;DHT22;21057;51.024;7.540;2023-02-28T14:56:05;8.50;61.30
15455;DHT22;21057;51.024;7.540;2023-02-28T14:58:33;7.80;62.90
15455;DHT22;21057;51.024;7.540;2023-02-28T15:01:02;7.60;64.00
15455;DHT22;21057;51.024;7.540;2023-02-28T15:03:31;7.30;64.60
15455;DHT22;21057;51.024;7.540;2023-02-28T15:06:00;7.20;66.70
15455;DHT22;21057;51.024;7.540;2023-02-28T15:08:36;6.80;68.20
15455;DHT22;21057;51.024;7.540;2023-02-28T15:11:16;6.60;69.00
15455;DHT22;21057;51.024;7.540;2023-02-28T15:13:47;6.60;71.80
15455;DHT22;21057;51.024;7.540;2023-02-28T15:16:21;6.30;70.50
15455;DHT22;21057;51.024;7.540;2023-02-28T15:18:50;6.30;75.00
15455;DHT22;21057;51.024;7.540;2023-02-28T15:21:21;6.20;74.70
15455;DHT22;21057;51.024;7.540;2023-02-28T15:23:53;6.10;75.30
15455;DHT22;21057;51.024;7.540;2023-02-28T15:26:25;6.10;75.00
15455;DHT22;21057;51.024;7.540;2023-02-28T15:28:58;5.80;76.40
15455;DHT22;21057;51.024;7.540;2023-02-28T15:31:27;5.80;78.70
15455;DHT22;21057;51.024;7.540;2023-02-28T15:34:19;5.70;77.50
15455;DHT22;21057;51.024;7.540;2023-02-28T15:36:47;5.60;79.40
15455;DHT22;21057;51.024;7.540;2023-02-28T15:39:22;5.50;79.30
15455;DHT22;21057;51.024;7.540;2023-02-28T15:41:51;5.40;81.30
15455;DHT22;21057;51.024;7.540;2023-02-28T15:44:24;5.40;79.20
15455;DHT22;21057;51.024;7.540;2023-02-28T15:46:59;5.30;81.00
15455;DHT22;21057;51.024;7.540;2023-02-28T15:49:28;5.30;82.20
15455;DHT22;21057;51.024;7.540;2023-02-28T15:51:59;5.30;83.60
15455;DHT22;21057;51.024;7.540;2023-02-28T15:54:29;5.30;83.30
15455;DHT22;21057;51.024;7.540;2023-02-28T15:57:06;5.20;84.70
15455;DHT22;21057;51.024;7.540;2023-02-28T15:59:36;5.30;84.30
15455;DHT22;21057;51.024;7.540;2023-02-28T16:02:16;5.10;83.80
15455;DHT22;21057;51.024;7.540;2023-02-28T16:05:17;5.00;87.60
15455;DHT22;21057;51.024;7.540;2023-02-28T16:08:11;5.00;86.30
15455;DHT22;21057;51.024;7.540;2023-02-28T16:10:41;4.90;87.60
15455;DHT22;21057;51.024;7.540;2023-02-28T16:13:12;4.90;86.70
15455;DHT22;21057;51.024;7.540;2023-02-28T16:15:52;5.00;87.20
15455;DHT22;21057;51.024;7.540;2023-02-28T16:18:20;4.90;88.60
15455;DHT22;21057;51.024;7.540;2023-02-28T16:20:53;4.80;87.50
15455;DHT22;21057;51.024;7.540;2023-02-28T16:23:20;4.80;89.50
15455;DHT22;21057;51.024;7.540;2023-02-28T16:25:54;4.70;88.20
15455;DHT22;21057;51.024;7.540;2023-02-28T16:28:25;4.70;89.00
15455;DHT22;21057;51.024;7.540;2023-02-28T16:30:56;4.70;88.80
15455;DHT22;21057;51.024;7.540;2023-02-28T16:33:23;4.70;90.90
15455;DHT22;21057;51.024;7.540;2023-02-28T16:35:50;4.50;90.60
15455;DHT22;21057;51.024;7.540;2023-02-28T16:38:17;4.50;90.40
15455;DHT22;21057;51.024;7.540;2023-02-28T16:40:44;4.40;90.60
15455;DHT22;21057;51.024;7.540;2023-02-28T16:43:16;4.40;91.80